sensor_id;sensor_type;location;lat;lon;timestamp;pressure;altitude;pressure_sealevel;temperature;humidity
74403;BME280;62837;51.082;13.744;2023-11-19T00:00:29;100482.55;;;5.42;73.17
74403;BME280;62837;51.082;13.744;2023-11-19T00:03:00;100479.53;;;5.40;73.07
74403;BME280;62837;51.082;13.744;2023-11-19T00:05:31;100466.37;;;5.38;73.14
74403;BME280;62837;51.082;13.744;2023-11-19T00:08:02;100453.06;;;5.36;73.20
74403;BME280;62837;51.082;13.744;2023-11-19T00:10:35;100449.65;;;5.33;73.48
74403;BME280;62837;51.082;13.744;2023-11-19T00:13:06;100427.53;;;5.29;73.44
74403;BME280;62837;51.082;13.744;2023-11-19T00:15:37;100413.86;;;5.26;73.60
74403;BME280;62837;51.082;13.744;2023-11-19T00:18:08;100399.30;;;5.22;73.32
74403;BME280;62837;51.082;13.744;2023-11-19T00:20:39;100411.52;;;5.20;73.35
74403;BME280;62837;51.082;13.744;2023-11-19T00:23:11;100407.73;;;5.19;73.22
74403;BME280;62837;51.082;13.744;2023-11-19T00:25:41;100416.05;;;5.17;73.10
74403;BME280;62837;51.082;13.744;2023-11-19T00:28:12;100424.42;;;5.14;73.18
74403;BME280;62837;51.082;13.744;2023-11-19T00:30:43;100399.39;;;5.12;73.14
74403;BME280;62837;51.082;13.744;2023-11-19T00:33:14;100391.95;;;5.09;73.03
74403;BME280;62837;51.082;13.744;2023-11-19T00:35:45;100391.67;;;5.07;73.30
74403;BME280;62837;51.082;13.744;2023-11-19T00:38:16;100389.73;;;5.04;73.23
74403;BME280;62837;51.082;13.744;2023-11-19T00:40:47;100391.06;;;5.04;73.31
74403;BME280;62837;51.082;13.744;2023-11-19T00:43:18;100388.19;;;5.02;73.03
74403;BME280;62837;51.082;13.744;2023-11-19T00:45:51;100383.42;;;5.02;73.46
74403;BME280;62837;51.082;13.744;2023-11-19T00:48:22;100380.03;;;5.01;73.18
74403;BME280;62837;51.082;13.744;2023-11-19T00:50:53;100375.21;;;5.01;73.74
74403;BME280;62837;51.082;13.744;2023-11-19T00:53:24;100366.95;;;5.03;74.07
74403;BME280;62837;51.082;13.744;2023-11-19T00:55:54;100364.31;;;5.04;73.80
74403;BME280;62837;51.082;13.744;2023-11-19T00:58:26;100362.00;;;5.04;73.81
74403;BME280;62837;51.082;13.744;2023-11-19T01:00:57;100346.66;;;5.02;73.82
74403;BME280;62837;51.082;13.744;2023-11-19T01:03:29;100338.48;;;5.01;73.62
74403;BME280;62837;51.082;13.744;2023-11-19T01:06:03;100342.05;;;5.00;73.80
74403;BME280;62837;51.082;13.744;2023-11-19T01:08:34;100328.94;;;4.99;73.68
74403;BME280;62837;51.082;13.744;2023-11-19T01:11:06;100314.70;;;4.98;73.77
74403;BME280;62837;51.082;13.744;2023-11-19T01:13:37;100301.38;;;4.97;73.64
74403;BME280;62837;51.082;13.744;2023-11-19T01:16:09;100293.71;;;4.98;73.88
74403;BME280;62837;51.082;13.744;2023-11-19T01:18:40;100295.32;;;4.97;73.75
74403;BME280;62837;51.082;13.744;2023-11-19T01:21:13;100291.66;;;4.97;73.96
74403;BME280;62837;51.082;13.744;2023-11-19T01:23:45;100282.86;;;4.97;73.74
74403;BME280;62837;51.082;13.744;2023-11-19T01:26:16;100288.85;;;4.98;73.89
74403;BME280;62837;51.082;13.744;2023-11-19T01:28:47;100285.98;;;4.98;74.05
74403;BME280;62837;51.082;13.744;2023-11-19T01:31:21;100276.70;;;5.00;73.86
74403;BME280;62837;51.082;13.744;2023-11-19T01:33:52;100274.05;;;5.00;73.82
74403;BME280;62837;51.082;13.744;2023-11-19T01:36:23;100261.42;;;5.02;73.60
74403;BME280;62837;51.082;13.744;2023-11-19T01:38:54;100258.61;;;5.03;73.90
74403;BME280;62837;51.082;13.744;2023-11-19T01:41:25;100255.08;;;5.03;73.95
74403;BME280;62837;51.082;13.744;2023-11-19T01:43:55;100242.90;;;5.06;73.87
74403;BME280;62837;51.082;13.744;2023-11-19T01:46:26;100234.33;;;5.07;73.94
74403;BME280;62837;51.082;13.744;2023-11-19T01:48:58;100231.70;;;5.09;73.80
74403;BME280;62837;51.082;13.744;2023-11-19T01:51:30;100226.29;;;5.10;73.80
74403;BME280;62837;51.082;13.744;2023-11-19T01:54:03;100214.33;;;5.04;73.74
74403;BME280;62837;51.082;13.744;2023-11-19T01:56:34;100215.96;;;5.07;73.65
74403;BME280;62837;51.082;13.744;2023-11-19T01:59:05;100209.77;;;5.10;73.84
74403;BME280;62837;51.082;13.744;2023-11-19T02:01:39;100198.08;;;5.13;73.55
74403;BME280;62837;51.082;13.744;2023-11-19T02:04:11;100187.16;;;5.10;73.58
74403;BME280;62837;51.082;13.744;2023-11-19T02:06:44;100179.77;;;5.15;73.41
74403;BME280;62837;51.082;13.744;2023-11-19T02:09:15;100178.46;;;5.15;73.26
74403;BME280;62837;51.082;13.744;2023-11-19T02:11:47;100169.06;;;5.16;73.34
74403;BME280;62837;51.082;13.744;2023-11-19T02:14:24;100168.23;;;5.17;73.18
74403;BME280;62837;51.082;13.744;2023-11-19T02:16:56;100162.96;;;5.18;73.44
74403;BME280;62837;51.082;13.744;2023-11-19T02:19:27;100161.30;;;5.19;73.38
74403;BME280;62837;51.082;13.744;2023-11-19T02:21:58;100151.05;;;5.21;73.48
74403;BME280;62837;51.082;13.744;2023-11-19T02:24:30;100133.79;;;5.20;73.86
74403;BME280;62837;51.082;13.744;2023-11-19T02:27:10;100125.55;;;5.20;73.76
74403;BME280;62837;51.082;13.744;2023-11-19T02:29:45;100116.66;;;5.22;73.92
74403;BME280;62837;51.082;13.744;2023-11-19T02:32:17;100115.86;;;5.22;73.94
74403;BME280;62837;51.082;13.744;2023-11-19T02:34:48;100110.58;;;5.22;73.86
74403;BME280;62837;51.082;13.744;2023-11-19T02:37:18;100110.33;;;5.23;73.91
74403;BME280;62837;51.082;13.744;2023-11-19T02:39:49;100100.55;;;5.22;74.12
74403;BME280;62837;51.082;13.744;2023-11-19T02:42:20;100091.50;;;5.22;74.28
74403;BME280;62837;51.082;13.744;2023-11-19T02:44:51;100085.73;;;5.23;74.26
74403;BME280;62837;51.082;13.744;2023-11-19T02:47:22;100086.59;;;5.24;74.38
74403;BME280;62837;51.082;13.744;2023-11-19T02:49:55;100082.05;;;5.25;74.19
74403;BME280;62837;51.082;13.744;2023-11-19T02:52:25;100074.23;;;5.27;74.28
74403;BME280;62837;51.082;13.744;2023-11-19T02:54:56;100070.61;;;5.28;74.26
74403;BME280;62837;51.082;13.744;2023-11-19T02:57:32;100073.38;;;5.30;74.05
74403;BME280;62837;51.082;13.744;2023-11-19T03:00:04;100064.43;;;5.31;74.10
74403;BME280;62837;51.082;13.744;2023-11-19T03:02:42;100051.38;;;5.32;74.09
74403;BME280;62837;51.082;13.744;2023-11-19T03:05:16;100043.75;;;5.33;74.22
74403;BME280;62837;51.082;13.744;2023-11-19T03:07:47;100038.80;;;5.34;74.25
74403;BME280;62837;51.082;13.744;2023-11-19T03:10:17;100030.48;;;5.35;74.18
74403;BME280;62837;51.082;13.744;2023-11-19T03:12:48;100016.14;;;5.34;74.46
74403;BME280;62837;51.082;13.744;2023-11-19T03:15:20;100013.65;;;5.33;74.37
74403;BME280;62837;51.082;13.744;2023-11-19T03:17:51;100015.45;;;5.33;74.58
74403;BME280;62837;51.082;13.744;2023-11-19T03:20:22;100018.00;;;5.32;74.50
74403;BME280;62837;51.082;13.744;2023-11-19T03:22:57;100013.22;;;5.32;74.40
74403;BME280;62837;51.082;13.744;2023-11-19T03:25:28;100009.83;;;5.32;74.28
74403;BME280;62837;51.082;13.744;2023-11-19T03:28:04;99986.29;;;5.33;74.35
74403;BME280;62837;51.082;13.744;2023-11-19T03:30:36;99977.02;;;5.34;74.53
74403;BME280;62837;51.082;13.744;2023-11-19T03:33:08;99975.63;;;5.34;74.54
74403;BME280;62837;51.082;13.744;2023-11-19T03:35:39;99982.28;;;5.36;74.52
74403;BME280;62837;51.082;13.744;2023-11-19T03:38:10;99984.45;;;5.37;74.55
74403;BME280;62837;51.082;13.744;2023-11-19T03:40:42;99980.20;;;5.39;74.51
74403;BME280;62837;51.082;13.744;2023-11-19T03:43:13;99972.30;;;5.41;74.38
74403;BME280;62837;51.082;13.744;2023-11-19T03:45:44;99968.58;;;5.40;74.37
74403;BME280;62837;51.082;13.744;2023-11-19T03:48:15;99967.38;;;5.42;74.39
74403;BME280;62837;51.082;13.744;2023-11-19T03:50:46;99956.81;;;5.43;74.26
74403;BME280;62837;51.082;13.744;2023-11-19T03:53:18;99946.27;;;5.44;74.25
74403;BME280;62837;51.082;13.744;2023-11-19T03:55:49;99943.38;;;5.44;74.22
74403;BME280;62837;51.082;13.744;2023-11-19T03:58:20;99925.17;;;5.42;74.19
74403;BME280;62837;51.082;13.744;2023-11-19T04:00:51;99926.84;;;5.45;74.11
74403;BME280;62837;51.082;13.744;2023-11-19T04:03:22;99918.52;;;5.46;74.27
74403;BME280;62837;51.082;13.744;2023-11-19T04:05:53;99915.62;;;5.46;74.33
74403;BME280;62837;51.082;13.744;2023-11-19T04:08:23;99912.89;;;5.46;74.51
74403;BME280;62837;51.082;13.744;2023-11-19T04:10:54;99914.16;;;5.46;74.38
74403;BME280;62837;51.082;13.744;2023-11-19T04:13:25;99905.84;;;5.46;74.67
74403;BME280;62837;51.082;13.744;2023-11-19T04:15:56;99903.77;;;5.45;74.60
74403;BME280;62837;51.082;13.744;2023-11-19T04:18:26;99897.48;;;5.45;74.65
74403;BME280;62837;51.082;13.744;2023-11-19T04:20:57;99898.36;;;5.45;74.66
74403;BME280;62837;51.082;13.744;2023-11-19T04:23:28;99901.88;;;5.45;74.65
74403;BME280;62837;51.082;13.744;2023-11-19T04:25:59;99900.50;;;5.44;74.74
74403;BME280;62837;51.082;13.744;2023-11-19T04:28:35;99897.98;;;5.43;74.90
74403;BME280;62837;51.082;13.744;2023-11-19T04:31:06;99892.86;;;5.43;74.94
74403;BME280;62837;51.082;13.744;2023-11-19T04:33:39;99885.27;;;5.43;75.10
74403;BME280;62837;51.082;13.744;2023-11-19T04:36:10;99884.66;;;5.42;75.30
74403;BME280;62837;51.082;13.744;2023-11-19T04:38:43;99879.53;;;5.40;75.72
74403;BME280;62837;51.082;13.744;2023-11-19T04:41:15;99877.50;;;5.37;76.33
74403;BME280;62837;51.082;13.744;2023-11-19T04:43:46;99868.87;;;5.34;76.99
74403;BME280;62837;51.082;13.744;2023-11-19T04:46:17;99870.98;;;5.31;77.24
74403;BME280;62837;51.082;13.744;2023-11-19T04:48:48;99866.90;;;5.29;77.16
74403;BME280;62837;51.082;13.744;2023-11-19T04:51:19;99856.70;;;5.29;77.59
74403;BME280;62837;51.082;13.744;2023-11-19T04:53:50;99855.34;;;5.29;77.89
74403;BME280;62837;51.082;13.744;2023-11-19T04:56:21;99849.29;;;5.24;78.05
74403;BME280;62837;51.082;13.744;2023-11-19T04:58:52;99838.95;;;5.23;78.06
74403;BME280;62837;51.082;13.744;2023-11-19T05:01:23;99839.05;;;5.22;78.28
74403;BME280;62837;51.082;13.744;2023-11-19T05:03:55;99841.69;;;5.20;78.45
74403;BME280;62837;51.082;13.744;2023-11-19T05:06:29;99839.69;;;5.19;78.65
74403;BME280;62837;51.082;13.744;2023-11-19T05:09:01;99828.83;;;5.18;78.76
74403;BME280;62837;51.082;13.744;2023-11-19T05:11:35;99831.19;;;5.16;79.05
74403;BME280;62837;51.082;13.744;2023-11-19T05:14:20;99832.89;;;5.15;79.30
74403;BME280;62837;51.082;13.744;2023-11-19T05:16:51;99826.77;;;5.14;79.51
74403;BME280;62837;51.082;13.744;2023-11-19T05:19:22;99825.11;;;5.13;79.50
74403;BME280;62837;51.082;13.744;2023-11-19T05:21:53;99825.71;;;5.13;79.71
74403;BME280;62837;51.082;13.744;2023-11-19T05:24:24;99824.73;;;5.13;79.74
74403;BME280;62837;51.082;13.744;2023-11-19T05:26:55;99814.48;;;5.12;79.82
74403;BME280;62837;51.082;13.744;2023-11-19T05:29:27;99810.02;;;5.13;80.37
74403;BME280;62837;51.082;13.744;2023-11-19T05:31:59;99801.86;;;5.12;80.30
74403;BME280;62837;51.082;13.744;2023-11-19T05:34:30;99798.05;;;5.11;80.40
74403;BME280;62837;51.082;13.744;2023-11-19T05:37:02;99794.63;;;5.10;80.77
74403;BME280;62837;51.082;13.744;2023-11-19T05:39:35;99790.92;;;5.07;80.58
74403;BME280;62837;51.082;13.744;2023-11-19T05:42:06;99785.23;;;5.06;80.68
74403;BME280;62837;51.082;13.744;2023-11-19T05:44:37;99789.84;;;5.06;80.67
74403;BME280;62837;51.082;13.744;2023-11-19T05:47:10;99792.52;;;5.04;81.11
74403;BME280;62837;51.082;13.744;2023-11-19T05:49:41;99782.98;;;5.01;80.86
74403;BME280;62837;51.082;13.744;2023-11-19T05:52:13;99780.39;;;4.98;81.11
74403;BME280;62837;51.082;13.744;2023-11-19T05:54:44;99779.38;;;4.96;81.33
74403;BME280;62837;51.082;13.744;2023-11-19T05:57:16;99775.33;;;4.96;81.29
74403;BME280;62837;51.082;13.744;2023-11-19T05:59:52;99776.14;;;4.94;81.29
74403;BME280;62837;51.082;13.744;2023-11-19T06:02:23;99771.25;;;4.94;81.31
74403;BME280;62837;51.082;13.744;2023-11-19T06:04:54;99763.73;;;4.94;81.39
74403;BME280;62837;51.082;13.744;2023-11-19T06:07:25;99761.06;;;4.94;81.51
74403;BME280;62837;51.082;13.744;2023-11-19T06:09:56;99749.67;;;4.93;81.77
74403;BME280;62837;51.082;13.744;2023-11-19T06:12:27;99743.13;;;4.92;81.72
74403;BME280;62837;51.082;13.744;2023-11-19T06:14:58;99735.55;;;4.91;81.75
74403;BME280;62837;51.082;13.744;2023-11-19T06:17:28;99741.56;;;4.94;81.67
74403;BME280;62837;51.082;13.744;2023-11-19T06:19:59;99731.26;;;4.94;82.12
74403;BME280;62837;51.082;13.744;2023-11-19T06:22:30;99729.13;;;4.93;82.07
74403;BME280;62837;51.082;13.744;2023-11-19T06:25:01;99708.02;;;4.95;81.87
74403;BME280;62837;51.082;13.744;2023-11-19T06:27:37;99712.02;;;4.97;81.82
74403;BME280;62837;51.082;13.744;2023-11-19T06:30:10;99706.30;;;4.99;82.03
74403;BME280;62837;51.082;13.744;2023-11-19T06:32:41;99709.73;;;5.00;82.34
74403;BME280;62837;51.082;13.744;2023-11-19T06:35:12;99703.34;;;5.02;82.49
74403;BME280;62837;51.082;13.744;2023-11-19T06:37:44;99697.73;;;5.03;82.31
74403;BME280;62837;51.082;13.744;2023-11-19T06:40:15;99703.00;;;5.05;82.37
74403;BME280;62837;51.082;13.744;2023-11-19T06:42:46;99710.59;;;5.10;83.17
74403;BME280;62837;51.082;13.744;2023-11-19T06:45:17;99707.98;;;5.16;82.78
74403;BME280;62837;51.082;13.744;2023-11-19T06:47:47;99709.90;;;5.18;82.79
74403;BME280;62837;51.082;13.744;2023-11-19T06:50:19;99711.45;;;5.22;82.79
74403;BME280;62837;51.082;13.744;2023-11-19T06:52:49;99696.69;;;5.25;82.90
74403;BME280;62837;51.082;13.744;2023-11-19T06:55:20;99701.05;;;5.28;82.71
74403;BME280;62837;51.082;13.744;2023-11-19T06:57:51;99694.43;;;5.30;82.70
74403;BME280;62837;51.082;13.744;2023-11-19T07:00:22;99690.94;;;5.32;82.85
74403;BME280;62837;51.082;13.744;2023-11-19T07:02:52;99687.74;;;5.33;82.92
74403;BME280;62837;51.082;13.744;2023-11-19T07:05:24;99685.89;;;5.36;83.06
74403;BME280;62837;51.082;13.744;2023-11-19T07:07:55;99682.05;;;5.37;83.10
74403;BME280;62837;51.082;13.744;2023-11-19T07:10:26;99691.64;;;5.40;83.39
74403;BME280;62837;51.082;13.744;2023-11-19T07:12:57;99698.90;;;5.43;83.24
74403;BME280;62837;51.082;13.744;2023-11-19T07:15:28;99695.52;;;5.46;83.26
74403;BME280;62837;51.082;13.744;2023-11-19T07:17:59;99703.27;;;5.49;83.20
74403;BME280;62837;51.082;13.744;2023-11-19T07:20:31;99703.04;;;5.51;83.35
74403;BME280;62837;51.082;13.744;2023-11-19T07:23:02;99706.64;;;5.54;83.29
74403;BME280;62837;51.082;13.744;2023-11-19T07:25:33;99711.66;;;5.57;83.38
74403;BME280;62837;51.082;13.744;2023-11-19T07:28:05;99711.55;;;5.59;83.42
74403;BME280;62837;51.082;13.744;2023-11-19T07:30:36;99715.39;;;5.64;83.62
74403;BME280;62837;51.082;13.744;2023-11-19T07:33:08;99720.64;;;5.67;83.74
74403;BME280;62837;51.082;13.744;2023-11-19T07:35:39;99716.94;;;5.70;83.81
74403;BME280;62837;51.082;13.744;2023-11-19T07:38:11;99719.52;;;5.75;83.72
74403;BME280;62837;51.082;13.744;2023-11-19T07:40:41;99709.33;;;5.77;83.63
74403;BME280;62837;51.082;13.744;2023-11-19T07:43:25;99704.44;;;5.79;83.60
74403;BME280;62837;51.082;13.744;2023-11-19T07:45:56;99702.23;;;5.80;83.62
74403;BME280;62837;51.082;13.744;2023-11-19T07:48:28;99706.26;;;5.82;83.67
74403;BME280;62837;51.082;13.744;2023-11-19T07:50:59;99710.94;;;5.85;83.91
74403;BME280;62837;51.082;13.744;2023-11-19T07:53:30;99708.02;;;5.88;83.90
74403;BME280;62837;51.082;13.744;2023-11-19T07:56:02;99707.28;;;5.92;84.04
74403;BME280;62837;51.082;13.744;2023-11-19T07:58:33;99709.56;;;5.97;84.03
74403;BME280;62837;51.082;13.744;2023-11-19T08:01:05;99714.95;;;5.99;83.94
74403;BME280;62837;51.082;13.744;2023-11-19T08:03:36;99718.27;;;6.01;84.03
74403;BME280;62837;51.082;13.744;2023-11-19T08:06:08;99707.08;;;5.99;84.48
74403;BME280;62837;51.082;13.744;2023-11-19T08:08:39;99715.88;;;6.03;84.72
74403;BME280;62837;51.082;13.744;2023-11-19T08:11:10;99716.53;;;6.05;84.57
74403;BME280;62837;51.082;13.744;2023-11-19T08:13:41;99723.42;;;6.10;84.68
74403;BME280;62837;51.082;13.744;2023-11-19T08:16:12;99712.50;;;6.12;84.57
74403;BME280;62837;51.082;13.744;2023-11-19T08:18:44;99716.21;;;6.16;84.88
74403;BME280;62837;51.082;13.744;2023-11-19T08:21:15;99704.39;;;6.20;84.95
74403;BME280;62837;51.082;13.744;2023-11-19T08:23:46;99700.37;;;6.24;84.80
74403;BME280;62837;51.082;13.744;2023-11-19T08:26:17;99696.68;;;6.32;84.87
74403;BME280;62837;51.082;13.744;2023-11-19T08:28:50;99689.48;;;6.50;84.94
74403;BME280;62837;51.082;13.744;2023-11-19T08:31:22;99692.90;;;6.64;85.11
74403;BME280;62837;51.082;13.744;2023-11-19T08:33:53;99690.92;;;6.70;84.89
74403;BME280;62837;51.082;13.744;2023-11-19T08:36:24;99701.50;;;6.86;87.38
74403;BME280;62837;51.082;13.744;2023-11-19T08:38:55;99694.46;;;7.43;91.04
74403;BME280;62837;51.082;13.744;2023-11-19T08:41:26;99689.88;;;7.66;86.83
74403;BME280;62837;51.082;13.744;2023-11-19T08:43:56;99686.94;;;7.90;85.13
74403;BME280;62837;51.082;13.744;2023-11-19T08:46:27;99686.42;;;7.93;84.05
74403;BME280;62837;51.082;13.744;2023-11-19T08:48:58;99691.24;;;7.87;83.66
74403;BME280;62837;51.082;13.744;2023-11-19T08:51:30;99704.13;;;7.79;83.33
74403;BME280;62837;51.082;13.744;2023-11-19T08:54:01;99701.22;;;7.73;83.50
74403;BME280;62837;51.082;13.744;2023-11-19T08:56:31;99706.29;;;7.81;83.40
74403;BME280;62837;51.082;13.744;2023-11-19T08:59:04;99715.48;;;7.80;83.63
74403;BME280;62837;51.082;13.744;2023-11-19T09:01:35;99707.11;;;7.76;84.40
74403;BME280;62837;51.082;13.744;2023-11-19T09:04:06;99709.72;;;7.69;84.67
74403;BME280;62837;51.082;13.744;2023-11-19T09:06:38;99710.21;;;7.65;84.94
74403;BME280;62837;51.082;13.744;2023-11-19T09:09:09;99705.38;;;7.63;85.56
74403;BME280;62837;51.082;13.744;2023-11-19T09:11:40;99712.76;;;7.71;86.93
74403;BME280;62837;51.082;13.744;2023-11-19T09:14:12;99710.73;;;7.71;86.22
74403;BME280;62837;51.082;13.744;2023-11-19T09:16:42;99707.05;;;7.70;86.18
74403;BME280;62837;51.082;13.744;2023-11-19T09:19:13;99710.65;;;7.70;86.29
74403;BME280;62837;51.082;13.744;2023-11-19T09:21:44;99710.87;;;7.69;86.34
74403;BME280;62837;51.082;13.744;2023-11-19T09:24:15;99710.66;;;7.71;87.05
74403;BME280;62837;51.082;13.744;2023-11-19T09:26:46;99714.30;;;7.73;87.05
74403;BME280;62837;51.082;13.744;2023-11-19T09:29:17;99720.23;;;7.74;86.95
74403;BME280;62837;51.082;13.744;2023-11-19T09:31:49;99723.52;;;7.75;87.02
74403;BME280;62837;51.082;13.744;2023-11-19T09:34:20;99726.27;;;7.77;87.47
74403;BME280;62837;51.082;13.744;2023-11-19T09:36:51;99710.98;;;7.80;87.58
74403;BME280;62837;51.082;13.744;2023-11-19T09:39:21;99701.55;;;7.86;88.88
74403;BME280;62837;51.082;13.744;2023-11-19T09:41:52;99699.38;;;7.96;89.94
74403;BME280;62837;51.082;13.744;2023-11-19T09:44:23;99699.70;;;8.07;90.35
74403;BME280;62837;51.082;13.744;2023-11-19T09:46:57;99699.55;;;8.15;90.29
74403;BME280;62837;51.082;13.744;2023-11-19T09:49:29;99699.53;;;8.23;90.75
74403;BME280;62837;51.082;13.744;2023-11-19T09:52:05;99702.86;;;8.32;90.76
74403;BME280;62837;51.082;13.744;2023-11-19T09:54:35;99695.75;;;8.40;90.93
74403;BME280;62837;51.082;13.744;2023-11-19T09:57:08;99692.82;;;8.51;91.50
74403;BME280;62837;51.082;13.744;2023-11-19T09:59:41;99687.27;;;8.63;91.15
74403;BME280;62837;51.082;13.744;2023-11-19T10:02:13;99679.39;;;8.73;90.86
74403;BME280;62837;51.082;13.744;2023-11-19T10:04:47;99678.45;;;8.82;90.22
74403;BME280;62837;51.082;13.744;2023-11-19T10:07:19;99683.48;;;8.90;90.14
74403;BME280;62837;51.082;13.744;2023-11-19T10:09:54;99679.47;;;9.05;89.74
74403;BME280;62837;51.082;13.744;2023-11-19T10:12:25;99677.69;;;9.15;89.79
74403;BME280;62837;51.082;13.744;2023-11-19T10:14:58;99665.33;;;9.34;89.57
74403;BME280;62837;51.082;13.744;2023-11-19T10:17:34;99656.30;;;9.62;89.49
74403;BME280;62837;51.082;13.744;2023-11-19T10:20:08;99658.23;;;9.90;88.45
74403;BME280;62837;51.082;13.744;2023-11-19T10:22:40;99652.43;;;10.02;87.25
74403;BME280;62837;51.082;13.744;2023-11-19T10:25:23;99659.91;;;10.06;87.10
74403;BME280;62837;51.082;13.744;2023-11-19T10:27:55;99664.29;;;10.08;86.81
74403;BME280;62837;51.082;13.744;2023-11-19T10:30:27;99661.84;;;10.10;86.26
74403;BME280;62837;51.082;13.744;2023-11-19T10:33:06;99655.40;;;10.12;86.17
74403;BME280;62837;51.082;13.744;2023-11-19T10:35:52;99663.45;;;10.17;85.89
74403;BME280;62837;51.082;13.744;2023-11-19T10:38:27;99665.38;;;10.22;85.57
74403;BME280;62837;51.082;13.744;2023-11-19T10:40:58;99661.48;;;10.27;85.53
74403;BME280;62837;51.082;13.744;2023-11-19T10:43:29;99659.61;;;10.32;85.11
74403;BME280;62837;51.082;13.744;2023-11-19T10:46:12;99655.77;;;10.37;84.65
74403;BME280;62837;51.082;13.744;2023-11-19T10:48:44;99648.27;;;10.42;84.41
74403;BME280;62837;51.082;13.744;2023-11-19T10:51:17;99644.38;;;10.52;84.01
74403;BME280;62837;51.082;13.744;2023-11-19T10:53:51;99652.00;;;10.57;83.62
74403;BME280;62837;51.082;13.744;2023-11-19T10:56:25;99665.15;;;10.58;83.40
74403;BME280;62837;51.082;13.744;2023-11-19T10:59:02;99666.02;;;10.58;83.34
74403;BME280;62837;51.082;13.744;2023-11-19T11:01:52;99665.42;;;10.61;83.36
74403;BME280;62837;51.082;13.744;2023-11-19T11:04:25;99665.31;;;10.64;83.69
74403;BME280;62837;51.082;13.744;2023-11-19T11:06:58;99668.55;;;10.69;83.43
74403;BME280;62837;51.082;13.744;2023-11-19T11:09:30;99665.06;;;10.71;83.13
74403;BME280;62837;51.082;13.744;2023-11-19T11:12:03;99658.73;;;10.73;83.08
74403;BME280;62837;51.082;13.744;2023-11-19T11:14:39;99660.84;;;10.75;82.81
74403;BME280;62837;51.082;13.744;2023-11-19T11:17:12;99659.23;;;10.74;82.67
74403;BME280;62837;51.082;13.744;2023-11-19T11:19:48;99654.95;;;10.75;82.73
74403;BME280;62837;51.082;13.744;2023-11-19T11:22:19;99654.46;;;10.74;82.79
74403;BME280;62837;51.082;13.744;2023-11-19T11:25:06;99652.42;;;10.75;82.80
74403;BME280;62837;51.082;13.744;2023-11-19T11:28:00;99658.79;;;10.76;82.60
74403;BME280;62837;51.082;13.744;2023-11-19T11:30:46;99666.22;;;10.78;82.51
74403;BME280;62837;51.082;13.744;2023-11-19T11:33:32;99669.58;;;10.80;82.40
74403;BME280;62837;51.082;13.744;2023-11-19T11:36:16;99672.44;;;10.79;82.14
74403;BME280;62837;51.082;13.744;2023-11-19T11:38:50;99667.20;;;10.79;82.36
74403;BME280;62837;51.082;13.744;2023-11-19T11:41:22;99658.84;;;10.81;82.20
74403;BME280;62837;51.082;13.744;2023-11-19T11:43:58;99655.64;;;10.88;82.51
74403;BME280;62837;51.082;13.744;2023-11-19T11:49:28;99658.97;;;11.08;81.69
74403;BME280;62837;51.082;13.744;2023-11-19T11:52:02;99656.23;;;11.26;81.25
74403;BME280;62837;51.082;13.744;2023-11-19T11:54:36;99660.66;;;11.43;80.21
74403;BME280;62837;51.082;13.744;2023-11-19T11:57:12;99664.96;;;11.53;79.67
74403;BME280;62837;51.082;13.744;2023-11-19T11:59:53;99661.55;;;11.65;79.37
74403;BME280;62837;51.082;13.744;2023-11-19T12:02:26;99652.14;;;11.78;79.35
74403;BME280;62837;51.082;13.744;2023-11-19T12:04:57;99650.36;;;11.89;78.99
74403;BME280;62837;51.082;13.744;2023-11-19T12:07:30;99654.06;;;11.95;78.17
74403;BME280;62837;51.082;13.744;2023-11-19T12:10:09;99648.46;;;12.00;77.69
74403;BME280;62837;51.082;13.744;2023-11-19T12:12:42;99646.68;;;12.02;77.61
74403;BME280;62837;51.082;13.744;2023-11-19T12:15:13;99644.48;;;12.02;77.56
74403;BME280;62837;51.082;13.744;2023-11-19T12:17:48;99640.52;;;12.01;76.82
74403;BME280;62837;51.082;13.744;2023-11-19T12:20:22;99633.93;;;11.98;76.94
74403;BME280;62837;51.082;13.744;2023-11-19T12:22:56;99629.04;;;11.96;76.48
74403;BME280;62837;51.082;13.744;2023-11-19T12:25:27;99625.59;;;11.94;76.32
74403;BME280;62837;51.082;13.744;2023-11-19T12:28:05;99619.03;;;11.93;75.75
74403;BME280;62837;51.082;13.744;2023-11-19T12:30:36;99617.39;;;12.00;76.10
74403;BME280;62837;51.082;13.744;2023-11-19T12:33:10;99607.70;;;12.10;76.07
74403;BME280;62837;51.082;13.744;2023-11-19T12:35:42;99604.66;;;12.25;76.22
74403;BME280;62837;51.082;13.744;2023-11-19T12:38:22;99603.67;;;12.42;75.69
74403;BME280;62837;51.082;13.744;2023-11-19T12:41:05;99603.22;;;12.61;74.92
74403;BME280;62837;51.082;13.744;2023-11-19T12:43:37;99598.15;;;12.76;74.18
74403;BME280;62837;51.082;13.744;2023-11-19T12:46:20;99592.92;;;12.89;72.92
74403;BME280;62837;51.082;13.744;2023-11-19T12:48:52;99585.83;;;13.01;71.76
74403;BME280;62837;51.082;13.744;2023-11-19T12:51:23;99592.48;;;13.09;71.04
74403;BME280;62837;51.082;13.744;2023-11-19T12:54:01;99587.14;;;13.14;71.22
74403;BME280;62837;51.082;13.744;2023-11-19T12:56:32;99583.45;;;13.14;70.83
74403;BME280;62837;51.082;13.744;2023-11-19T12:59:13;99576.47;;;13.10;69.99
74403;BME280;62837;51.082;13.744;2023-11-19T13:01:55;99579.41;;;13.14;69.91
74403;BME280;62837;51.082;13.744;2023-11-19T13:04:29;99580.05;;;13.15;69.50
74403;BME280;62837;51.082;13.744;2023-11-19T13:07:01;99581.80;;;13.20;69.89
74403;BME280;62837;51.082;13.744;2023-11-19T13:09:35;99584.98;;;13.23;70.17
74403;BME280;62837;51.082;13.744;2023-11-19T13:12:15;99583.10;;;13.22;69.72
74403;BME280;62837;51.082;13.744;2023-11-19T13:14:46;99592.84;;;13.17;69.36
74403;BME280;62837;51.082;13.744;2023-11-19T13:17:17;99579.11;;;13.10;69.59
74403;BME280;62837;51.082;13.744;2023-11-19T13:19:49;99569.91;;;13.02;69.43
74403;BME280;62837;51.082;13.744;2023-11-19T13:22:20;99574.17;;;12.93;69.86
74403;BME280;62837;51.082;13.744;2023-11-19T13:24:52;99570.52;;;12.83;70.07